createdAt,value
2017-03-15T00:00:50.203Z,1029.15
2017-03-15T00:01:59.462Z,1029.14
2017-03-15T00:03:08.677Z,1029.13
2017-03-15T00:04:17.930Z,1029.14
2017-03-15T00:05:27.203Z,1029.16
2017-03-15T00:06:36.161Z,1029.14
2017-03-15T00:07:45.422Z,1029.12
2017-03-15T00:08:54.684Z,1029.13
2017-03-15T00:10:03.637Z,1029.16
2017-03-15T00:11:13.191Z,1029.14
2017-03-15T00:12:22.447Z,1029.22
2017-03-15T00:13:32.310Z,1029.24
2017-03-15T00:14:41.574Z,1029.25
2017-03-15T00:15:50.834Z,1029.24
2017-03-15T00:16:59.799Z,1029.2
2017-03-15T00:18:09.363Z,1029.17
2017-03-15T00:19:18.922Z,1029.12
2017-03-15T00:20:28.436Z,1029.11
2017-03-15T00:21:37.689Z,1029.09
2017-03-15T00:22:47.247Z,1029.12
2017-03-15T00:23:56.805Z,1029.08
2017-03-15T00:25:05.765Z,1029.09
2017-03-15T00:26:15.027Z,1029.07
2017-03-15T00:27:24.589Z,1029.12
2017-03-15T00:28:33.848Z,1029.12
2017-03-15T00:29:43.110Z,1029.09
2017-03-15T00:30:52.678Z,1029.06
2017-03-15T00:32:02.195Z,1029.07
2017-03-15T00:33:11.155Z,1029.08
2017-03-15T00:34:20.419Z,1029.1
2017-03-15T00:35:29.980Z,1029.08
2017-03-15T00:36:39.235Z,1029.08
2017-03-15T00:37:48.500Z,1029.07
2017-03-15T00:38:57.473Z,1029.08
2017-03-15T00:40:06.731Z,1029.1
2017-03-15T00:41:15.997Z,1029.1
2017-03-15T00:42:24.960Z,1029.07
2017-03-15T00:43:34.221Z,1029.05
2017-03-15T00:44:43.791Z,1029.06
2017-03-15T00:45:53.046Z,1029.08
2017-03-15T00:47:02.313Z,1029.08
2017-03-15T00:48:11.276Z,1029.07
2017-03-15T00:49:20.542Z,1029.07
2017-03-15T00:50:30.107Z,1029.11
2017-03-15T00:51:40.007Z,1029.09
2017-03-15T00:52:49.264Z,1029.14
2017-03-15T00:53:58.230Z,1029.13
2017-03-15T00:55:07.190Z,1029.15
2017-03-15T00:56:16.148Z,1029.17
2017-03-15T00:57:25.408Z,1029.16
2017-03-15T00:58:34.078Z,1029.14
2017-03-15T00:59:43.037Z,1029.15
2017-03-15T01:00:52.308Z,1029.13
2017-03-15T01:02:01.863Z,1029.15
2017-03-15T01:03:10.823Z,1029.11
2017-03-15T01:04:20.390Z,1029.12
2017-03-15T01:05:29.656Z,1029.14
2017-03-15T01:06:39.469Z,1029.2
2017-03-15T01:07:48.738Z,1029.22
2017-03-15T01:08:57.699Z,1029.22
2017-03-15T01:10:06.961Z,1029.15
2017-03-15T01:11:15.919Z,1029.21
2017-03-15T01:12:25.478Z,1029.26
2017-03-15T01:13:34.756Z,1029.25
2017-03-15T01:14:43.735Z,1029.26
2017-03-15T01:15:52.998Z,1029.34
2017-03-15T01:17:01.676Z,1029.28
2017-03-15T01:18:10.890Z,1029.3
2017-03-15T01:19:20.459Z,1029.26
2017-03-15T01:20:30.337Z,1029.2
2017-03-15T01:21:39.899Z,1029.13
2017-03-15T01:22:49.472Z,1029.13
2017-03-15T01:23:58.727Z,1029.12
2017-03-15T01:25:07.995Z,1029.13
2017-03-15T01:26:17.253Z,1029.08
2017-03-15T01:27:26.521Z,1029.06
2017-03-15T01:28:36.081Z,1029.11
2017-03-15T01:29:45.343Z,1029.12
2017-03-15T01:30:54.608Z,1029.09
2017-03-15T01:32:04.465Z,1029.08
2017-03-15T01:33:14.024Z,1029.12
2017-03-15T01:34:23.285Z,1029.11
2017-03-15T01:35:33.088Z,1029.12
2017-03-15T01:36:42.349Z,1029.1
2017-03-15T01:37:51.611Z,1029.04
2017-03-15T01:39:01.172Z,1029.01
2017-03-15T01:40:10.734Z,1028.95
2017-03-15T01:41:20.598Z,1028.98
2017-03-15T01:42:30.460Z,1028.98
2017-03-15T01:43:39.418Z,1029.03
2017-03-15T01:44:48.980Z,1029.01
2017-03-15T01:45:57.943Z,1029.04
2017-03-15T01:47:07.762Z,1029.04
2017-03-15T01:48:17.336Z,1029.06
2017-03-15T01:49:26.593Z,1029.07
2017-03-15T01:50:36.450Z,1029.04
2017-03-15T01:51:46.361Z,1029.07
2017-03-15T01:52:55.323Z,1029
2017-03-15T01:54:04.290Z,1028.95
2017-03-15T01:55:13.564Z,1028.93
2017-03-15T01:56:22.840Z,1028.89
2017-03-15T01:57:32.706Z,1028.88
2017-03-15T01:58:42.232Z,1028.89
2017-03-15T01:59:51.800Z,1028.87
2017-03-15T02:01:01.669Z,1028.89
2017-03-15T02:02:11.526Z,1028.85
2017-03-15T02:03:21.088Z,1028.85
2017-03-15T02:04:30.652Z,1028.87
2017-03-15T02:05:40.214Z,1028.86
2017-03-15T02:06:48.870Z,1028.86
2017-03-15T02:07:58.435Z,1028.85
2017-03-15T02:09:07.696Z,1028.84
2017-03-15T02:10:16.958Z,1028.82
2017-03-15T02:11:26.522Z,1028.8
2017-03-15T02:12:36.087Z,1028.81
2017-03-15T02:13:44.749Z,1028.82
2017-03-15T02:14:54.309Z,1028.86
2017-03-15T02:16:04.118Z,1028.94
2017-03-15T02:17:13.084Z,1028.95
2017-03-15T02:18:22.366Z,1028.97
2017-03-15T02:19:31.623Z,1028.89
2017-03-15T02:20:41.185Z,1028.92
2017-03-15T02:21:50.748Z,1028.9
2017-03-15T02:23:00.311Z,1028.79
2017-03-15T02:24:09.876Z,1028.78
2017-03-15T02:25:19.439Z,1028.77
2017-03-15T02:26:29.002Z,1028.73
2017-03-15T02:27:39.112Z,1028.73
2017-03-15T02:28:48.973Z,1028.75
2017-03-15T02:29:58.539Z,1028.76
2017-03-15T02:31:07.793Z,1028.84
2017-03-15T02:32:17.109Z,1028.87
2017-03-15T02:33:25.771Z,1028.87
2017-03-15T02:34:34.735Z,1028.93
2017-03-15T02:35:43.428Z,1028.89
2017-03-15T02:36:53.323Z,1028.94
2017-03-15T02:38:02.582Z,1028.9
2017-03-15T02:39:12.099Z,1028.95
2017-03-15T02:40:21.659Z,1028.93
2017-03-15T02:41:30.637Z,1028.9
2017-03-15T02:42:39.913Z,1028.96
2017-03-15T02:43:49.772Z,1028.91
2017-03-15T02:44:58.725Z,1028.94
2017-03-15T02:46:07.992Z,1028.9
2017-03-15T02:47:17.553Z,1028.9
2017-03-15T02:48:26.827Z,1028.92
2017-03-15T02:49:35.804Z,1028.96
2017-03-15T02:50:44.777Z,1028.92
2017-03-15T02:51:54.040Z,1028.88
2017-03-15T02:53:03.300Z,1028.93
2017-03-15T02:54:12.304Z,1028.94
2017-03-15T02:55:21.598Z,1028.95
2017-03-15T02:56:31.722Z,1028.94
2017-03-15T02:57:41.003Z,1028.88
2017-03-15T02:58:49.975Z,1028.84
2017-03-15T02:59:59.839Z,1028.84
2017-03-15T03:01:09.104Z,1028.82
2017-03-15T03:02:18.393Z,1028.82
2017-03-15T03:03:28.564Z,1028.83
2017-03-15T03:04:37.523Z,1028.81
2017-03-15T03:05:47.137Z,1028.77
2017-03-15T03:06:56.411Z,1028.81
2017-03-15T03:08:05.687Z,1028.86
2017-03-15T03:09:14.357Z,1028.9
2017-03-15T03:10:23.934Z,1028.95
2017-03-15T03:11:32.941Z,1028.91
2017-03-15T03:12:42.836Z,1028.93
2017-03-15T03:13:52.396Z,1028.94
2017-03-15T03:15:01.378Z,1028.97
2017-03-15T03:16:10.050Z,1028.93
2017-03-15T03:17:19.329Z,1028.99
2017-03-15T03:18:29.224Z,1029.01
2017-03-15T03:19:38.484Z,1028.98
2017-03-15T03:20:47.755Z,1028.97
2017-03-15T03:21:57.349Z,1029.02
2017-03-15T03:23:06.307Z,1029.03
2017-03-15T03:24:15.559Z,1029.05
2017-03-15T03:25:25.385Z,1029.14
2017-03-15T03:26:34.051Z,1029.09
2017-03-15T03:27:43.319Z,1029.11
2017-03-15T03:28:52.910Z,1029.11
2017-03-15T03:30:02.193Z,1029.05
2017-03-15T03:31:11.169Z,1029.04
2017-03-15T03:32:21.045Z,1029.03
2017-03-15T03:33:30.615Z,1029.03
2017-03-15T03:34:39.588Z,1029.01
2017-03-15T03:35:48.865Z,1029.01
2017-03-15T03:36:57.824Z,1029.01
2017-03-15T03:38:07.090Z,1029.07
2017-03-15T03:39:16.658Z,1029.1
2017-03-15T03:40:26.531Z,1029.15
2017-03-15T03:41:35.794Z,1029.09
2017-03-15T03:42:45.945Z,1029.11
2017-03-15T03:43:55.519Z,1029.13
2017-03-15T03:45:04.508Z,1029.11
2017-03-15T03:46:13.769Z,1029.1
2017-03-15T03:47:22.762Z,1029.11
2017-03-15T03:48:32.333Z,1029.11
2017-03-15T03:49:41.913Z,1029.16
2017-03-15T03:50:51.180Z,1029.17
2017-03-15T03:52:00.158Z,1029.07
2017-03-15T03:53:09.455Z,1029.14
2017-03-15T03:54:19.217Z,1029.1
2017-03-15T03:55:29.115Z,1029.07
2017-03-15T03:56:38.378Z,1029.06
2017-03-15T03:57:47.972Z,1029.08
2017-03-15T03:58:57.546Z,1029.07
2017-03-15T04:00:06.521Z,1029.11
2017-03-15T04:01:15.781Z,1029.17
2017-03-15T04:02:25.957Z,1029.15
2017-03-15T04:03:35.532Z,1029.18
2017-03-15T04:04:44.810Z,1029.19
2017-03-15T04:05:54.700Z,1029.17
2017-03-15T04:07:03.967Z,1029.16
2017-03-15T04:08:13.224Z,1029.09
2017-03-15T04:09:22.491Z,1029.07
2017-03-15T04:10:32.371Z,1029.09
2017-03-15T04:11:41.911Z,1029.03
2017-03-15T04:12:50.877Z,1029.08
2017-03-15T04:14:00.137Z,1029.1
2017-03-15T04:15:09.470Z,1029.14
2017-03-15T04:16:19.077Z,1029.14
2017-03-15T04:17:28.658Z,1029.17
2017-03-15T04:18:38.827Z,1029.15
2017-03-15T04:19:48.116Z,1029.14
2017-03-15T04:20:57.676Z,1029.13
2017-03-15T04:22:07.249Z,1029.16
2017-03-15T04:23:17.058Z,1029.15
2017-03-15T04:24:27.124Z,1029.14
2017-03-15T04:25:36.419Z,1029.19
2017-03-15T04:26:45.416Z,1029.19
2017-03-15T04:27:54.373Z,1029.21
2017-03-15T04:29:03.932Z,1029.21
2017-03-15T04:30:13.489Z,1029.21
2017-03-15T04:31:22.771Z,1029.25
2017-03-15T04:32:32.646Z,1029.26
2017-03-15T04:33:41.919Z,1029.3
2017-03-15T04:34:50.580Z,1029.26
2017-03-15T04:35:59.538Z,1029.25
2017-03-15T04:37:09.097Z,1029.27
2017-03-15T04:38:18.387Z,1029.26
2017-03-15T04:39:27.662Z,1029.32
2017-03-15T04:40:36.919Z,1029.31
2017-03-15T04:41:46.784Z,1029.41
2017-03-15T04:42:55.762Z,1029.4
2017-03-15T04:44:05.036Z,1029.48
2017-03-15T04:45:14.327Z,1029.41
2017-03-15T04:46:23.303Z,1029.46
2017-03-15T04:47:32.604Z,1029.42
2017-03-15T04:48:41.878Z,1029.43
2017-03-15T04:49:51.169Z,1029.41
2017-03-15T04:51:01.048Z,1029.37
2017-03-15T04:52:10.627Z,1029.4
2017-03-15T04:53:19.310Z,1029.43
2017-03-15T04:54:29.175Z,1029.39
2017-03-15T04:55:39.046Z,1029.43
2017-03-15T04:56:48.916Z,1029.45
2017-03-15T04:57:58.435Z,1029.49
2017-03-15T04:59:08.302Z,1029.47
2017-03-15T05:00:17.869Z,1029.45
2017-03-15T05:01:26.829Z,1029.44
2017-03-15T05:02:36.395Z,1029.45
2017-03-15T05:03:45.960Z,1029.43
2017-03-15T05:04:55.529Z,1029.43
2017-03-15T05:06:05.097Z,1029.39
2017-03-15T05:07:14.057Z,1029.4
2017-03-15T05:08:23.625Z,1029.42
2017-03-15T05:09:33.139Z,1029.44
2017-03-15T05:10:42.709Z,1029.51
2017-03-15T05:11:52.275Z,1029.5
2017-03-15T05:13:01.534Z,1029.48
2017-03-15T05:14:11.103Z,1029.48
2017-03-15T05:15:20.975Z,1029.43
2017-03-15T05:16:29.972Z,1029.4
2017-03-15T05:17:39.532Z,1029.38
2017-03-15T05:18:49.095Z,1029.35
2017-03-15T05:19:58.954Z,1029.28
2017-03-15T05:21:08.464Z,1029.28
2017-03-15T05:22:17.723Z,1029.28
2017-03-15T05:23:26.988Z,1029.32
2017-03-15T05:24:36.250Z,1029.35
2017-03-15T05:25:46.123Z,1029.38
2017-03-15T05:26:55.084Z,1029.36
2017-03-15T05:28:04.652Z,1029.38
2017-03-15T05:29:14.515Z,1029.38
2017-03-15T05:30:23.788Z,1029.39
2017-03-15T05:31:33.653Z,1029.37
2017-03-15T05:32:43.215Z,1029.34
2017-03-15T05:33:52.777Z,1029.35
2017-03-15T05:35:02.041Z,1029.35
2017-03-15T05:36:10.994Z,1029.38
2017-03-15T05:37:20.553Z,1029.39
2017-03-15T05:38:30.371Z,1029.39
2017-03-15T05:39:39.936Z,1029.4
2017-03-15T05:40:49.505Z,1029.39
2017-03-15T05:41:59.393Z,1029.47
2017-03-15T05:43:08.345Z,1029.48
2017-03-15T05:44:17.605Z,1029.45
2017-03-15T05:45:27.167Z,1029.55
2017-03-15T05:46:37.026Z,1029.59
2017-03-15T05:47:46.295Z,1029.61
2017-03-15T05:48:55.854Z,1029.6
2017-03-15T05:50:04.816Z,1029.59
2017-03-15T05:51:13.781Z,1029.6
2017-03-15T05:52:23.946Z,1029.61
2017-03-15T05:53:33.511Z,1029.53
2017-03-15T05:54:42.768Z,1029.55
2017-03-15T05:55:52.578Z,1029.58
2017-03-15T05:57:01.835Z,1029.59
2017-03-15T05:58:11.396Z,1029.55
2017-03-15T05:59:20.973Z,1029.57
2017-03-15T06:00:30.549Z,1029.56
2017-03-15T06:01:39.524Z,1029.53
2017-03-15T06:02:48.498Z,1029.57
2017-03-15T06:03:58.139Z,1029.62
2017-03-15T06:05:07.095Z,1029.6
2017-03-15T06:06:16.966Z,1029.64
2017-03-15T06:07:26.533Z,1029.63
2017-03-15T06:08:35.491Z,1029.67
2017-03-15T06:09:45.354Z,1029.65
2017-03-15T06:10:54.625Z,1029.65
2017-03-15T06:12:04.186Z,1029.7
2017-03-15T06:13:13.443Z,1029.66
2017-03-15T06:14:22.713Z,1029.66
2017-03-15T06:15:32.273Z,1029.66
2017-03-15T06:16:41.825Z,1029.69
2017-03-15T06:17:50.784Z,1029.71
2017-03-15T06:19:00.045Z,1029.72
2017-03-15T06:20:09.599Z,1029.71
2017-03-15T06:21:18.875Z,1029.69
2017-03-15T06:22:28.135Z,1029.73
2017-03-15T06:23:37.399Z,1029.66
2017-03-15T06:24:47.472Z,1029.7
2017-03-15T06:25:57.045Z,1029.71
2017-03-15T06:27:06.004Z,1029.7
2017-03-15T06:28:15.570Z,1029.64
2017-03-15T06:29:24.539Z,1029.72
2017-03-15T06:30:33.800Z,1029.71
2017-03-15T06:31:43.358Z,1029.72
2017-03-15T06:32:52.020Z,1029.74
2017-03-15T06:34:02.183Z,1029.72
2017-03-15T06:35:12.057Z,1029.76
2017-03-15T06:36:22.173Z,1029.73
2017-03-15T06:37:31.435Z,1029.73
2017-03-15T06:38:40.697Z,1029.73
2017-03-15T06:39:49.953Z,1029.78
2017-03-15T06:40:59.212Z,1029.73
2017-03-15T06:42:08.465Z,1029.77
2017-03-15T06:43:18.630Z,1029.8
2017-03-15T06:44:27.289Z,1029.79
2017-03-15T06:45:36.849Z,1029.75
2017-03-15T06:46:45.504Z,1029.84
2017-03-15T06:47:54.765Z,1029.87
2017-03-15T06:49:03.729Z,1029.95
2017-03-15T06:50:12.685Z,1029.96
2017-03-15T06:51:21.652Z,1029.99
2017-03-15T06:52:31.515Z,1030.01
2017-03-15T06:53:41.636Z,1030.02
2017-03-15T06:54:50.898Z,1030.02
2017-03-15T06:56:00.160Z,1030.05
2017-03-15T06:57:09.721Z,1030.08
2017-03-15T06:58:19.582Z,1030.11
2017-03-15T06:59:29.100Z,1030.22
2017-03-15T07:00:37.758Z,1030.22
2017-03-15T07:01:47.329Z,1030.23
2017-03-15T07:02:56.893Z,1030.15
2017-03-15T07:04:05.852Z,1030.09
2017-03-15T07:05:15.111Z,1030.07
2017-03-15T07:06:24.681Z,1030.09
2017-03-15T07:07:34.256Z,1030.15
2017-03-15T07:08:43.824Z,1030.09
2017-03-15T07:09:53.388Z,1030.04
2017-03-15T07:11:02.949Z,1030.02
2017-03-15T07:12:12.508Z,1030.04
2017-03-15T07:13:21.473Z,1030.04
2017-03-15T07:14:31.327Z,1030.08
2017-03-15T07:15:40.293Z,1030.09
2017-03-15T07:16:50.149Z,1030.06
2017-03-15T07:17:59.722Z,1030.07
2017-03-15T07:19:09.292Z,1030.08
2017-03-15T07:20:18.853Z,1030.07
2017-03-15T07:21:28.114Z,1030.12
2017-03-15T07:22:37.927Z,1030.1
2017-03-15T07:23:47.190Z,1030.12
2017-03-15T07:24:56.154Z,1030.11
2017-03-15T07:26:05.116Z,1030.11
2017-03-15T07:27:14.675Z,1030.12
2017-03-15T07:28:23.948Z,1030.16
2017-03-15T07:29:33.803Z,1030.2
2017-03-15T07:30:42.775Z,1030.2
2017-03-15T07:31:51.737Z,1030.13
2017-03-15T07:33:01.299Z,1030.13
2017-03-15T07:34:10.513Z,1030.06
2017-03-15T07:35:19.777Z,1030.13
2017-03-15T07:36:29.048Z,1030.12
2017-03-15T07:37:38.612Z,1030.12
2017-03-15T07:38:47.276Z,1030.14
2017-03-15T07:39:56.231Z,1030.09
2017-03-15T07:41:05.695Z,1030.07
2017-03-15T07:42:15.279Z,1030.08
2017-03-15T07:43:24.351Z,1030.06
2017-03-15T07:44:34.108Z,1030.11
2017-03-15T07:45:43.640Z,1030.09
2017-03-15T07:46:53.001Z,1030.14
2017-03-15T07:48:02.580Z,1030.12
2017-03-15T07:49:11.879Z,1030.14
2017-03-15T07:50:20.875Z,1030.12
2017-03-15T07:51:30.517Z,1030.1
2017-03-15T07:52:39.501Z,1030.14
2017-03-15T07:53:49.371Z,1030.13
2017-03-15T07:54:58.654Z,1030.16
2017-03-15T07:56:07.975Z,1030.15
2017-03-15T07:57:17.449Z,1030.16
2017-03-15T07:58:26.428Z,1030.16
2017-03-15T07:59:35.396Z,1030.16
2017-03-15T08:00:44.714Z,1030.17
2017-03-15T08:01:54.075Z,1030.19
2017-03-15T08:03:03.348Z,1030.21
2017-03-15T08:04:13.215Z,1030.23
2017-03-15T08:05:22.780Z,1030.22
2017-03-15T08:06:31.757Z,1030.2
2017-03-15T08:07:41.047Z,1030.16
2017-03-15T08:08:50.894Z,1030.16
2017-03-15T08:10:00.464Z,1030.23
2017-03-15T08:11:09.437Z,1030.25
2017-03-15T08:12:18.721Z,1030.28
2017-03-15T08:13:28.300Z,1030.24
2017-03-15T08:14:37.051Z,1030.28
2017-03-15T08:15:46.620Z,1030.21
2017-03-15T08:16:55.933Z,1030.23
2017-03-15T08:18:05.557Z,1030.25
2017-03-15T08:19:15.134Z,1030.25
2017-03-15T08:20:24.322Z,1030.23
2017-03-15T08:21:33.600Z,1030.22
2017-03-15T08:22:42.562Z,1030.29
2017-03-15T08:23:51.535Z,1030.29
2017-03-15T08:25:00.805Z,1030.27
2017-03-15T08:26:10.755Z,1030.33
2017-03-15T08:27:20.316Z,1030.33
2017-03-15T08:28:29.876Z,1030.36
2017-03-15T08:29:38.843Z,1030.35
2017-03-15T08:30:48.417Z,1030.29
2017-03-15T08:31:57.679Z,1030.31
2017-03-15T08:33:06.942Z,1030.34
2017-03-15T08:34:15.906Z,1030.33
2017-03-15T08:35:24.580Z,1030.34
2017-03-15T08:36:33.547Z,1030.33
2017-03-15T08:37:42.506Z,1030.41
2017-03-15T08:38:51.769Z,1030.4
2017-03-15T08:40:00.731Z,1030.44
2017-03-15T08:41:09.690Z,1030.43
2017-03-15T08:42:19.249Z,1030.38
2017-03-15T08:43:28.208Z,1030.39
2017-03-15T08:44:37.471Z,1030.41
2017-03-15T08:45:46.735Z,1030.39
2017-03-15T08:46:55.410Z,1030.44
2017-03-15T08:48:04.073Z,1030.39
2017-03-15T08:49:13.040Z,1030.39
2017-03-15T08:50:22.610Z,1030.38
2017-03-15T08:51:31.875Z,1030.41
2017-03-15T08:52:41.143Z,1030.44
2017-03-15T08:53:50.100Z,1030.44
2017-03-15T08:54:59.616Z,1030.47
2017-03-15T08:56:08.588Z,1030.42
2017-03-15T08:57:17.855Z,1030.44
2017-03-15T08:58:27.120Z,1030.42
2017-03-15T08:59:36.385Z,1030.4
2017-03-15T09:00:45.353Z,1030.37
2017-03-15T09:01:54.319Z,1030.37
2017-03-15T09:03:03.324Z,1030.37
2017-03-15T09:04:12.302Z,1030.34
2017-03-15T09:05:21.295Z,1030.39
2017-03-15T09:06:30.880Z,1030.43
2017-03-15T09:07:39.555Z,1030.47
2017-03-15T09:08:48.529Z,1030.49
2017-03-15T09:09:57.500Z,1030.44
2017-03-15T09:11:06.214Z,1030.44
2017-03-15T09:12:15.262Z,1030.45
2017-03-15T09:13:24.237Z,1030.43
2017-03-15T09:14:33.200Z,1030.44
2017-03-15T09:15:42.468Z,1030.41
2017-03-15T09:16:51.533Z,1030.43
2017-03-15T09:18:00.446Z,1030.42
2017-03-15T09:19:09.463Z,1030.47
2017-03-15T09:20:19.035Z,1030.46
2017-03-15T09:21:28.050Z,1030.5
2017-03-15T09:22:37.628Z,1030.48
2017-03-15T09:23:46.895Z,1030.44
2017-03-15T09:24:56.179Z,1030.46
2017-03-15T09:26:05.211Z,1030.48
2017-03-15T09:27:13.868Z,1030.46
2017-03-15T09:28:22.542Z,1030.47
2017-03-15T09:29:32.429Z,1030.48
2017-03-15T09:30:41.425Z,1030.54
2017-03-15T09:31:50.420Z,1030.62
2017-03-15T09:32:59.705Z,1030.64
2017-03-15T09:34:09.014Z,1030.61
2017-03-15T09:35:18.876Z,1030.69
2017-03-15T09:36:28.212Z,1030.59
2017-03-15T09:37:37.490Z,1030.68
2017-03-15T09:38:46.174Z,1030.68
2017-03-15T09:39:55.441Z,1030.65
2017-03-15T09:41:04.391Z,1030.67
2017-03-15T09:42:13.365Z,1030.67
2017-03-15T09:43:22.636Z,1030.72
2017-03-15T09:44:31.597Z,1030.64
2017-03-15T09:45:40.872Z,1030.69
2017-03-15T09:46:50.149Z,1030.67
2017-03-15T09:47:59.737Z,1030.69
2017-03-15T09:49:08.723Z,1030.65
2017-03-15T09:50:18.590Z,1030.66
2017-03-15T09:51:27.595Z,1030.65
2017-03-15T09:52:36.294Z,1030.61
2017-03-15T09:53:44.974Z,1030.71
2017-03-15T09:54:54.282Z,1030.72
2017-03-15T09:56:02.945Z,1030.65
2017-03-15T09:57:11.607Z,1030.68
2017-03-15T09:58:20.294Z,1030.7
2017-03-15T09:59:29.262Z,1030.76
2017-03-15T10:00:38.819Z,1030.77
2017-03-15T10:01:47.892Z,1030.83
2017-03-15T10:02:56.591Z,1030.78
2017-03-15T10:04:06.409Z,1030.74
2017-03-15T10:05:15.378Z,1030.7
2017-03-15T10:06:24.381Z,1030.73
2017-03-15T10:07:33.072Z,1030.83
2017-03-15T10:08:42.201Z,1030.92
2017-03-15T10:09:51.116Z,1030.9
2017-03-15T10:11:00.473Z,1030.97
2017-03-15T10:12:09.447Z,1030.97
2017-03-15T10:13:18.411Z,1031.03
2017-03-15T10:14:27.445Z,1031.06
2017-03-15T10:15:36.122Z,1030.82
2017-03-15T10:16:45.085Z,1030.94
2017-03-15T10:17:53.807Z,1030.9
2017-03-15T10:19:02.474Z,1030.75
2017-03-15T10:20:11.470Z,1030.69
2017-03-15T10:21:20.135Z,1030.67
2017-03-15T10:22:28.808Z,1030.78
2017-03-15T10:23:37.780Z,1030.93
2017-03-15T10:24:46.446Z,1031.12
2017-03-15T10:25:55.412Z,1031.13
2017-03-15T10:27:04.684Z,1031.31
2017-03-15T10:28:13.944Z,1031.24
2017-03-15T10:29:23.221Z,1031.27
2017-03-15T10:30:32.799Z,1031.32
2017-03-15T10:31:41.486Z,1031.25
2017-03-15T10:32:50.162Z,1031.32
2017-03-15T10:33:58.825Z,1031.24
2017-03-15T10:35:07.489Z,1031.35
2017-03-15T10:36:16.457Z,1031.04
2017-03-15T10:37:25.135Z,1031.11
2017-03-15T10:38:33.794Z,1031.16
2017-03-15T10:39:43.317Z,1031.07
2017-03-15T10:40:51.978Z,1031.05
2017-03-15T10:42:01.237Z,1031.13
2017-03-15T10:43:10.204Z,1031.13
2017-03-15T10:44:19.723Z,1031.03
2017-03-15T10:45:29.289Z,1031.19
2017-03-15T10:46:38.867Z,1031.14
2017-03-15T10:47:47.545Z,1031.15
2017-03-15T10:48:56.520Z,1031.09
2017-03-15T10:50:05.186Z,1031.01
2017-03-15T10:51:14.146Z,1030.95
2017-03-15T10:52:23.722Z,1030.95
2017-03-15T10:53:32.984Z,1030.91
2017-03-15T10:54:41.654Z,1030.88
2017-03-15T10:55:50.928Z,1030.83
2017-03-15T10:57:00.795Z,1030.86
2017-03-15T10:58:09.464Z,1030.81
2017-03-15T10:59:18.428Z,1030.79
2017-03-15T11:00:27.697Z,1030.83
2017-03-15T11:01:36.667Z,1030.82
2017-03-15T11:02:45.935Z,1030.77
2017-03-15T11:03:55.494Z,1030.84
2017-03-15T11:05:04.158Z,1030.8
2017-03-15T11:06:12.827Z,1030.73
2017-03-15T11:07:22.350Z,1030.71
2017-03-15T11:08:31.017Z,1030.68
2017-03-15T11:09:39.685Z,1030.66
2017-03-15T11:10:48.351Z,1030.65
2017-03-15T11:11:57.200Z,1030.67
2017-03-15T11:13:05.869Z,1030.64
2017-03-15T11:14:14.833Z,1030.69
2017-03-15T11:15:23.497Z,1030.65
2017-03-15T11:16:32.166Z,1030.71
2017-03-15T11:17:41.131Z,1030.68
2017-03-15T11:18:50.095Z,1030.67
2017-03-15T11:19:59.054Z,1030.66
2017-03-15T11:21:08.026Z,1030.64
2017-03-15T11:22:17.291Z,1030.63
2017-03-15T11:23:26.248Z,1030.7
2017-03-15T11:24:35.456Z,1030.64
2017-03-15T11:25:44.119Z,1030.64
2017-03-15T11:26:53.383Z,1030.66
2017-03-15T11:28:02.347Z,1030.6
2017-03-15T11:29:11.615Z,1030.64
2017-03-15T11:30:21.213Z,1030.63
2017-03-15T11:31:30.190Z,1030.61
2017-03-15T11:32:39.160Z,1030.66
2017-03-15T11:33:48.424Z,1030.66
2017-03-15T11:34:57.094Z,1030.66
2017-03-15T11:36:06.624Z,1030.6
2017-03-15T11:37:15.296Z,1030.57
2017-03-15T11:38:24.558Z,1030.54
2017-03-15T11:39:34.153Z,1030.49
2017-03-15T11:40:43.114Z,1030.49
2017-03-15T11:41:51.784Z,1030.52
2017-03-15T11:43:01.365Z,1030.51
2017-03-15T11:44:10.330Z,1030.52
2017-03-15T11:45:19.610Z,1030.55
2017-03-15T11:46:28.273Z,1030.54
2017-03-15T11:47:37.540Z,1030.54
2017-03-15T11:48:46.206Z,1030.58
2017-03-15T11:49:55.173Z,1030.53
2017-03-15T11:51:04.139Z,1030.52
2017-03-15T11:52:13.399Z,1030.5
2017-03-15T11:53:22.913Z,1030.45
2017-03-15T11:54:31.875Z,1030.44
2017-03-15T11:55:40.540Z,1030.43
2017-03-15T11:56:49.508Z,1030.44
2017-03-15T11:57:58.476Z,1030.43
2017-03-15T11:59:07.137Z,1030.39
2017-03-15T12:00:16.098Z,1030.38
2017-03-15T12:01:24.769Z,1030.41
2017-03-15T12:02:34.046Z,1030.41
2017-03-15T12:03:43.253Z,1030.46
2017-03-15T12:04:52.511Z,1030.43
2017-03-15T12:06:01.774Z,1030.4
2017-03-15T12:07:11.039Z,1030.45
2017-03-15T12:08:20.305Z,1030.42
2017-03-15T12:09:29.271Z,1030.41
2017-03-15T12:10:38.237Z,1030.38
2017-03-15T12:11:46.906Z,1030.33
2017-03-15T12:12:55.567Z,1030.3
2017-03-15T12:14:04.229Z,1030.27
2017-03-15T12:15:13.147Z,1030.29
2017-03-15T12:16:21.808Z,1030.3
2017-03-15T12:17:30.766Z,1030.25
2017-03-15T12:18:39.426Z,1030.23
2017-03-15T12:19:48.101Z,1030.25
2017-03-15T12:20:57.062Z,1030.22
2017-03-15T12:22:05.720Z,1030.29
2017-03-15T12:23:14.389Z,1030.21
2017-03-15T12:24:23.048Z,1030.23
2017-03-15T12:25:31.718Z,1030.16
2017-03-15T12:26:40.682Z,1030.18
2017-03-15T12:27:49.642Z,1030.15
2017-03-15T12:28:58.305Z,1030.15
2017-03-15T12:30:07.267Z,1030.18
2017-03-15T12:31:15.927Z,1030.17
2017-03-15T12:32:24.589Z,1030.17
2017-03-15T12:33:33.844Z,1030.18
2017-03-15T12:34:42.804Z,1030.15
2017-03-15T12:35:51.466Z,1030.18
2017-03-15T12:37:00.423Z,1030.19
2017-03-15T12:38:09.391Z,1030.18
2017-03-15T12:39:18.166Z,1030.17
2017-03-15T12:40:27.711Z,1030.2
2017-03-15T12:41:36.369Z,1030.13
2017-03-15T12:42:45.030Z,1030.12
2017-03-15T12:43:53.695Z,1030.1
2017-03-15T12:45:02.373Z,1030.05
2017-03-15T12:46:11.032Z,1030.08
2017-03-15T12:47:19.712Z,1030.1
2017-03-15T12:48:28.405Z,1030.11
2017-03-15T12:49:37.375Z,1030.08
2017-03-15T12:50:46.038Z,1030.07
2017-03-15T12:51:54.705Z,1030.06
2017-03-15T12:53:03.366Z,1030.08
2017-03-15T12:54:12.029Z,1030.05
2017-03-15T12:55:20.692Z,1030.05
2017-03-15T12:56:29.759Z,1030.09
2017-03-15T12:57:39.048Z,1030.02
2017-03-15T12:58:48.594Z,1030.05
2017-03-15T12:59:57.778Z,1030.07
2017-03-15T13:01:07.168Z,1030.05
2017-03-15T13:02:16.411Z,1030.06
2017-03-15T13:03:25.672Z,1030.05
2017-03-15T13:04:34.637Z,1030.05
2017-03-15T13:05:43.292Z,1030
2017-03-15T13:06:51.963Z,1030.05
2017-03-15T13:08:00.624Z,1030.05
2017-03-15T13:09:09.281Z,1030
2017-03-15T13:10:18.540Z,1029.97
2017-03-15T13:11:27.205Z,1029.94
2017-03-15T13:12:36.120Z,1029.93
2017-03-15T13:13:45.379Z,1029.94
2017-03-15T13:14:54.038Z,1029.95
2017-03-15T13:16:02.701Z,1029.93
2017-03-15T13:17:11.353Z,1029.92
2017-03-15T13:18:20.019Z,1029.93
2017-03-15T13:19:29.277Z,1029.95
2017-03-15T13:20:38.242Z,1029.91
2017-03-15T13:21:46.906Z,1029.88
2017-03-15T13:22:55.565Z,1029.84
2017-03-15T13:24:04.469Z,1029.81
2017-03-15T13:25:13.129Z,1029.8
2017-03-15T13:26:21.796Z,1029.8
2017-03-15T13:27:30.756Z,1029.81
2017-03-15T13:28:39.417Z,1029.74
2017-03-15T13:29:48.380Z,1029.71
2017-03-15T13:30:57.339Z,1029.7
2017-03-15T13:32:05.999Z,1029.72
2017-03-15T13:33:14.958Z,1029.67
2017-03-15T13:34:23.629Z,1029.68
2017-03-15T13:35:32.832Z,1029.65
2017-03-15T13:36:42.170Z,1029.7
2017-03-15T13:37:50.833Z,1029.63
2017-03-15T13:38:59.855Z,1029.58
2017-03-15T13:40:09.212Z,1029.55
2017-03-15T13:41:17.876Z,1029.6
2017-03-15T13:42:26.539Z,1029.52
2017-03-15T13:43:36.163Z,1029.56
2017-03-15T13:44:44.823Z,1029.57
2017-03-15T13:45:53.478Z,1029.58
2017-03-15T13:47:02.688Z,1029.6
2017-03-15T13:48:11.945Z,1029.62
2017-03-15T13:49:20.602Z,1029.61
2017-03-15T13:50:29.269Z,1029.56
2017-03-15T13:51:37.923Z,1029.57
2017-03-15T13:52:46.684Z,1029.52
2017-03-15T13:53:55.340Z,1029.49
2017-03-15T13:55:03.997Z,1029.5
2017-03-15T13:56:12.958Z,1029.49
2017-03-15T13:57:21.621Z,1029.47
2017-03-15T13:58:30.533Z,1029.42
2017-03-15T13:59:39.193Z,1029.42